Time;durP1;ratioP1;P1;durP2;ratioP2;P2;SDS_P1;SDS_P2;PMS_P1;PMS_P2;Temp;Humidity;BMP_temperature;BMP_pressure;BME280_temperature;BME280_humidity;BME280_pressure;Samples;Min_cycle;Max_cycle;Signal;HPM_P1;HPM_P2
2021/03/05 00:02:14;;;;;;;22.65;13.77;;;;;;;;;;5057749;28;20380;-87
2021/03/05 00:04:40;;;;;;;21.75;13.15;;;;;;;;;;5056444;28;20383;-85
2021/03/05 00:07:06;;;;;;;20.38;13.35;;;;;;;;;;5058202;28;20364;-86
2021/03/05 00:09:33;;;;;;;24.13;13.32;;;;;;;;;;5055710;28;20885;-87
2021/03/05 00:11:59;;;;;;;22.17;13.68;;;;;;;;;;5053923;28;20387;-86
2021/03/05 00:14:25;;;;;;;20.63;13.73;;;;;;;;;;5054203;28;20429;-87
2021/03/05 00:16:51;;;;;;;21.02;12.80;;;;;;;;;;5056831;28;20868;-88
2021/03/05 00:19:19;;;;;;;22.85;13.07;;;;;;;;;;5055931;28;20904;-86
2021/03/05 00:21:45;;;;;;;23.50;13.27;;;;;;;;;;5056231;28;20380;-86
2021/03/05 00:24:11;;;;;;;21.67;13.45;;;;;;;;;;5055580;28;20376;-86
2021/03/05 00:26:37;;;;;;;19.88;12.10;;;;;;;;;;5055768;28;20379;-88
2021/03/05 00:29:03;;;;;;;23.10;12.93;;;;;;;;;;5056144;28;20745;-87
2021/03/05 00:31:29;;;;;;;22.50;12.75;;;;;;;;;;5057482;28;20383;-88
2021/03/05 00:33:55;;;;;;;23.20;13.60;;;;;;;;;;5057749;28;20464;-87
2021/03/05 00:36:21;;;;;;;23.10;13.40;;;;;;;;;;5053726;28;20427;-84
2021/03/05 00:38:46;;;;;;;22.65;13.68;;;;;;;;;;5053329;28;20402;-86
2021/03/05 00:41:12;;;;;;;22.52;13.23;;;;;;;;;;5055838;28;20869;-86
2021/03/05 00:43:38;;;;;;;23.65;13.18;;;;;;;;;;5054403;28;20443;-84
2021/03/05 00:46:04;;;;;;;23.13;12.70;;;;;;;;;;5054785;28;20375;-87
2021/03/05 00:48:30;;;;;;;22.45;13.38;;;;;;;;;;5053199;28;20384;-86
2021/03/05 00:50:56;;;;;;;22.05;12.88;;;;;;;;;;5065701;28;20372;-83
2021/03/05 00:53:23;;;;;;;23.65;12.85;;;;;;;;;;5062941;28;20757;-83
2021/03/05 00:55:49;;;;;;;22.23;11.90;;;;;;;;;;5063254;28;20383;-84
2021/03/05 00:58:14;;;;;;;21.05;11.52;;;;;;;;;;5042885;28;20383;-87
2021/03/05 01:00:40;;;;;;;21.05;11.88;;;;;;;;;;5054416;28;20471;-87
2021/03/05 01:03:07;;;;;;;20.08;11.68;;;;;;;;;;5052458;28;20382;-88
2021/03/05 01:05:33;;;;;;;22.35;12.40;;;;;;;;;;5053090;28;20904;-90
2021/03/05 01:07:59;;;;;;;22.67;12.20;;;;;;;;;;5053711;28;20388;-88
2021/03/05 01:10:25;;;;;;;21.40;12.40;;;;;;;;;;5052990;28;20379;-89
2021/03/05 01:12:51;;;;;;;23.67;12.15;;;;;;;;;;5051723;28;20384;-85
2021/03/05 01:15:17;;;;;;;20.10;12.00;;;;;;;;;;5053429;28;20383;-86
2021/03/05 01:17:43;;;;;;;20.88;11.68;;;;;;;;;;5051869;28;20372;-88
2021/03/05 01:20:15;;;;;;;23.45;12.25;;;;;;;;;;5052832;28;20356;-87
2021/03/05 01:22:41;;;;;;;24.50;12.23;;;;;;;;;;5052778;28;20862;-84
2021/03/05 01:25:08;;;;;;;24.20;12.40;;;;;;;;;;5052063;28;20379;-84
2021/03/05 01:27:35;;;;;;;25.10;12.23;;;;;;;;;;5052321;28;20433;-89
2021/03/05 01:30:02;;;;;;;20.45;11.70;;;;;;;;;;5051784;28;20383;-87
2021/03/05 01:32:28;;;;;;;24.15;11.68;;;;;;;;;;5047436;28;20885;-90
2021/03/05 01:34:54;;;;;;;19.80;11.10;;;;;;;;;;5029459;28;20407;-85
2021/03/05 01:37:20;;;;;;;20.27;10.48;;;;;;;;;;5013728;28;20391;-86
2021/03/05 01:39:46;;;;;;;22.48;11.10;;;;;;;;;;5013294;28;20418;-88
2021/03/05 01:42:12;;;;;;;16.83;9.88;;;;;;;;;;5013946;28;20359;-84
2021/03/05 01:44:38;;;;;;;19.27;10.13;;;;;;;;;;5022640;28;20383;-85
2021/03/05 01:47:04;;;;;;;16.83;8.73;;;;;;;;;;5020723;28;20389;-83
2021/03/05 01:49:30;;;;;;;15.77;8.27;;;;;;;;;;5019810;28;20483;-86
2021/03/05 01:51:56;;;;;;;16.27;7.93;;;;;;;;;;5011365;28;20452;-84
2021/03/05 01:54:22;;;;;;;14.95;7.95;;;;;;;;;;5013690;28;21914;-83
2021/03/05 01:56:49;;;;;;;14.45;7.97;;;;;;;;;;5012652;28;20379;-86
2021/03/05 01:59:17;;;;;;;12.98;7.40;;;;;;;;;;5011033;28;20386;-87
2021/03/05 02:01:43;;;;;;;11.90;7.43;;;;;;;;;;5010994;28;20379;-84
2021/03/05 02:04:10;;;;;;;11.65;7.30;;;;;;;;;;5013050;28;20387;-85
2021/03/05 02:06:37;;;;;;;10.73;7.45;;;;;;;;;;5011068;28;20869;-86
2021/03/05 02:09:03;;;;;;;9.68;6.55;;;;;;;;;;5010719;28;20386;-86
2021/03/05 02:11:29;;;;;;;10.13;7.15;;;;;;;;;;5011014;28;20382;-84
2021/03/05 02:13:56;;;;;;;9.40;6.97;;;;;;;;;;5010865;28;20402;-87
2021/03/05 02:16:22;;;;;;;12.00;7.80;;;;;;;;;;5010833;28;20398;-85
2021/03/05 02:19:07;;;;;;;11.73;7.33;;;;;;;;;;5010027;28;20383;-88
2021/03/05 02:21:59;;;;;;;11.73;7.55;;;;;;;;;;5011027;28;20407;-88
2021/03/05 02:24:43;;;;;;;11.30;7.60;;;;;;;;;;5009411;28;21058;-86
2021/03/05 02:27:15;;;;;;;10.90;8.00;;;;;;;;;;5010241;28;20379;-86
2021/03/05 02:30:00;;;;;;;10.82;7.75;;;;;;;;;;5011388;28;20375;-86
2021/03/05 02:32:29;;;;;;;13.00;8.40;;;;;;;;;;5012158;28;20371;-85
2021/03/05 02:34:56;;;;;;;11.07;8.60;;;;;;;;;;5012161;28;20414;-87
2021/03/05 02:37:23;;;;;;;12.57;9.48;;;;;;;;;;5013134;28;20388;-85
2021/03/05 02:39:53;;;;;;;12.30;9.35;;;;;;;;;;5013456;28;20379;-85
2021/03/05 02:42:23;;;;;;;11.25;9.60;;;;;;;;;;5012661;28;20960;-84
2021/03/05 02:44:52;;;;;;;13.00;9.50;;;;;;;;;;5013100;28;20568;-86
2021/03/05 02:47:19;;;;;;;14.32;10.20;;;;;;;;;;5010491;28;20371;-87
2021/03/05 02:49:47;;;;;;;20.20;11.00;;;;;;;;;;5010189;28;20402;-83
2021/03/05 02:52:15;;;;;;;16.50;10.07;;;;;;;;;;5010496;28;20379;-84
2021/03/05 02:54:42;;;;;;;15.30;10.50;;;;;;;;;;5009129;28;20978;-87
2021/03/05 02:57:09;;;;;;;15.43;10.55;;;;;;;;;;5009604;28;20379;-84
2021/03/05 02:59:40;;;;;;;14.15;10.48;;;;;;;;;;5009068;28;20401;-85
2021/03/05 03:02:07;;;;;;;16.07;11.57;;;;;;;;;;5009144;28;20379;-86
2021/03/05 03:04:34;;;;;;;20.45;11.38;;;;;;;;;;5010316;28;20429;-83
2021/03/05 03:07:01;;;;;;;17.17;11.93;;;;;;;;;;5008563;28;20470;-87
2021/03/05 03:09:27;;;;;;;18.05;11.70;;;;;;;;;;5009155;28;20385;-88
2021/03/05 03:11:53;;;;;;;15.57;11.85;;;;;;;;;;5008835;28;20938;-86
2021/03/05 03:14:21;;;;;;;17.25;11.68;;;;;;;;;;5009277;28;20418;-85
2021/03/05 03:16:47;;;;;;;14.13;11.18;;;;;;;;;;5008903;28;20719;-84
2021/03/05 03:19:15;;;;;;;14.40;11.05;;;;;;;;;;5009877;28;20436;-88
2021/03/05 03:21:41;;;;;;;15.93;11.07;;;;;;;;;;5013873;28;20774;-86
2021/03/05 03:24:08;;;;;;;15.03;11.57;;;;;;;;;;5012842;28;20379;-88
2021/03/05 03:26:38;;;;;;;14.57;11.40;;;;;;;;;;5014485;28;20857;-85
2021/03/05 03:29:08;;;;;;;18.25;11.60;;;;;;;;;;5014175;28;20379;-87
2021/03/05 03:31:34;;;;;;;16.98;11.32;;;;;;;;;;5014587;28;20980;-87
2021/03/05 03:34:00;;;;;;;19.55;12.45;;;;;;;;;;5012932;28;20501;-87
2021/03/05 03:36:27;;;;;;;17.98;13.48;;;;;;;;;;5014296;28;20383;-88
2021/03/05 03:38:54;;;;;;;20.75;13.98;;;;;;;;;;5012447;28;20627;-86
2021/03/05 03:41:21;;;;;;;20.75;14.45;;;;;;;;;;5012888;28;20379;-87
2021/03/05 03:43:46;;;;;;;17.40;13.73;;;;;;;;;;5014625;28;20371;-85
2021/03/05 03:46:12;;;;;;;20.63;14.13;;;;;;;;;;5014225;28;20458;-86
2021/03/05 03:48:42;;;;;;;19.83;13.73;;;;;;;;;;5012330;28;20958;-89
2021/03/05 03:51:10;;;;;;;16.67;14.07;;;;;;;;;;5012235;28;20406;-88
2021/03/05 03:53:37;;;;;;;19.45;14.50;;;;;;;;;;5011727;28;20407;-89
2021/03/05 03:56:06;;;;;;;19.70;14.73;;;;;;;;;;5013614;28;20381;-86
2021/03/05 03:58:32;;;;;;;20.38;14.38;;;;;;;;;;5012639;28;20382;-87
2021/03/05 04:01:00;;;;;;;20.73;14.90;;;;;;;;;;5011628;28;20414;-88
2021/03/05 04:03:27;;;;;;;20.42;15.77;;;;;;;;;;5012121;28;20450;-88
2021/03/05 04:05:53;;;;;;;24.73;17.13;;;;;;;;;;5018230;28;20393;-84
2021/03/05 04:08:20;;;;;;;22.88;15.93;;;;;;;;;;5028691;28;20848;-85
2021/03/05 04:10:47;;;;;;;21.80;15.65;;;;;;;;;;5031351;28;20374;-84
2021/03/05 04:13:15;;;;;;;18.02;13.73;;;;;;;;;;5031683;28;20747;-84
2021/03/05 04:15:42;;;;;;;20.75;15.82;;;;;;;;;;5033114;28;20389;-86
2021/03/05 04:18:08;;;;;;;21.38;16.05;;;;;;;;;;5033985;28;20373;-89
2021/03/05 04:20:39;;;;;;;21.85;15.85;;;;;;;;;;5033278;28;20385;-87
2021/03/05 04:23:06;;;;;;;27.02;15.57;;;;;;;;;;5032202;28;20372;-85
2021/03/05 04:25:32;;;;;;;20.58;14.95;;;;;;;;;;5033102;28;20994;-86
2021/03/05 04:27:58;;;;;;;22.40;16.02;;;;;;;;;;5031926;28;20389;-83
2021/03/05 04:30:25;;;;;;;20.92;14.82;;;;;;;;;;5031324;28;20464;-84
2021/03/05 04:32:51;;;;;;;21.90;15.33;;;;;;;;;;5031748;28;20408;-83
2021/03/05 04:35:17;;;;;;;21.38;15.55;;;;;;;;;;5032176;28;20428;-86
2021/03/05 04:37:43;;;;;;;20.45;15.88;;;;;;;;;;5032830;28;20767;-90
2021/03/05 04:40:10;;;;;;;20.30;15.23;;;;;;;;;;5033341;28;20488;-88
2021/03/05 04:42:37;;;;;;;21.15;15.85;;;;;;;;;;5033092;28;20374;-87
2021/03/05 04:45:03;;;;;;;17.00;12.93;;;;;;;;;;5033535;28;20431;-84
2021/03/05 04:47:29;;;;;;;18.45;13.32;;;;;;;;;;5033279;28;20970;-87
2021/03/05 04:49:55;;;;;;;20.58;14.82;;;;;;;;;;5032580;28;20453;-87
2021/03/05 04:52:21;;;;;;;19.00;14.15;;;;;;;;;;5033856;28;20377;-84
2021/03/05 04:54:47;;;;;;;16.38;13.18;;;;;;;;;;5031713;28;20401;-85
2021/03/05 04:57:13;;;;;;;18.65;14.40;;;;;;;;;;5031694;28;20416;-83
2021/03/05 04:59:39;;;;;;;19.98;14.18;;;;;;;;;;5032459;28;20452;-87
2021/03/05 05:02:05;;;;;;;19.53;13.77;;;;;;;;;;5032623;28;20763;-86
2021/03/05 05:04:31;;;;;;;16.13;12.23;;;;;;;;;;5032942;28;20414;-85
2021/03/05 05:06:57;;;;;;;16.05;12.63;;;;;;;;;;5032175;28;20727;-86
2021/03/05 05:09:23;;;;;;;16.10;12.15;;;;;;;;;;5037858;28;20386;-84
2021/03/05 05:11:49;;;;;;;16.77;12.20;;;;;;;;;;5030816;28;20396;-82
2021/03/05 05:14:16;;;;;;;15.23;11.02;;;;;;;;;;5031361;28;20401;-86
2021/03/05 05:16:42;;;;;;;14.93;11.32;;;;;;;;;;5032004;28;20392;-87
2021/03/05 05:19:08;;;;;;;15.63;10.68;;;;;;;;;;5031090;28;20520;-89
2021/03/05 05:21:34;;;;;;;17.02;12.52;;;;;;;;;;5031534;28;21234;-89
2021/03/05 05:24:01;;;;;;;16.40;11.48;;;;;;;;;;5030992;28;20871;-86
2021/03/05 05:26:27;;;;;;;19.20;14.30;;;;;;;;;;5030278;28;20394;-82
2021/03/05 05:28:53;;;;;;;16.27;12.30;;;;;;;;;;5031221;28;20385;-87
2021/03/05 05:31:19;;;;;;;15.45;12.32;;;;;;;;;;5030960;28;20389;-87
2021/03/05 05:33:45;;;;;;;18.23;12.15;;;;;;;;;;5029708;28;20417;-87
2021/03/05 05:36:15;;;;;;;16.65;11.85;;;;;;;;;;5021403;28;20438;-88
2021/03/05 05:38:41;;;;;;;26.27;17.03;;;;;;;;;;5023319;28;20447;-86
2021/03/05 05:41:07;;;;;;;24.58;15.90;;;;;;;;;;5010242;28;20434;-86
2021/03/05 05:43:33;;;;;;;19.88;14.57;;;;;;;;;;5019436;28;20397;-88
2021/03/05 05:46:06;;;;;;;18.00;13.77;;;;;;;;;;5033960;28;20464;-86
2021/03/05 05:48:35;;;;;;;16.25;12.85;;;;;;;;;;5034623;28;20447;-85
2021/03/05 05:51:01;;;;;;;15.55;11.85;;;;;;;;;;5032844;28;20444;-88
2021/03/05 05:53:37;;;;;;;15.45;12.48;;;;;;;;;;5032298;28;20416;-86
2021/03/05 05:56:03;;;;;;;19.75;12.57;;;;;;;;;;5028401;28;20405;-86
2021/03/05 05:58:29;;;;;;;16.05;12.20;;;;;;;;;;5032038;28;20406;-84
2021/03/05 06:00:56;;;;;;;14.85;11.30;;;;;;;;;;5032171;28;20929;-85
2021/03/05 06:03:28;;;;;;;14.85;11.90;;;;;;;;;;5035263;28;20416;-86
2021/03/05 06:05:56;;;;;;;13.30;11.10;;;;;;;;;;5029284;28;20420;-85
2021/03/05 06:08:23;;;;;;;13.90;10.68;;;;;;;;;;5033175;28;20879;-91
2021/03/05 06:10:53;;;;;;;16.20;11.73;;;;;;;;;;5027702;28;20480;-87
2021/03/05 06:13:19;;;;;;;13.30;11.55;;;;;;;;;;5023833;28;20481;-83
2021/03/05 06:15:45;;;;;;;14.02;10.93;;;;;;;;;;5030403;28;20393;-81
2021/03/05 06:18:30;;;;;;;14.50;11.60;;;;;;;;;;5029370;28;20401;-84
2021/03/05 06:20:56;;;;;;;16.20;12.45;;;;;;;;;;5028618;28;20819;-85
2021/03/05 06:23:23;;;;;;;16.70;12.10;;;;;;;;;;5027483;28;20389;-84
2021/03/05 06:25:49;;;;;;;16.65;12.43;;;;;;;;;;5028988;28;21826;-84
2021/03/05 06:28:16;;;;;;;15.27;12.93;;;;;;;;;;5025995;28;20385;-84
2021/03/05 06:30:43;;;;;;;18.92;14.40;;;;;;;;;;5026747;28;20397;-85
2021/03/05 06:33:26;;;;;;;17.85;13.75;;;;;;;;;;5027281;28;20855;-86
2021/03/05 06:35:52;;;;;;;16.75;13.18;;;;;;;;;;5023233;28;20867;-89
2021/03/05 06:38:38;;;;;;;16.77;12.98;;;;;;;;;;5029953;28;20381;-86
2021/03/05 06:41:14;;;;;;;16.77;13.63;;;;;;;;;;5029717;28;20440;-87
2021/03/05 06:43:44;;;;;;;17.38;13.90;;;;;;;;;;5028456;28;20420;-84
2021/03/05 06:46:26;;;;;;;19.73;16.17;;;;;;;;;;5030123;28;20848;-86
2021/03/05 06:48:52;;;;;;;15.75;12.40;;;;;;;;;;5030243;28;20452;-86
2021/03/05 06:51:18;;;;;;;17.15;13.55;;;;;;;;;;5028819;28;20390;-86
2021/03/05 06:53:44;;;;;;;17.33;14.27;;;;;;;;;;5027858;28;20490;-88
2021/03/05 06:56:26;;;;;;;20.48;14.85;;;;;;;;;;5029209;28;20783;-86
2021/03/05 06:58:59;;;;;;;15.82;14.10;;;;;;;;;;5028786;28;20413;-88
2021/03/05 07:01:25;;;;;;;17.97;14.67;;;;;;;;;;5039983;28;20871;-88
2021/03/05 07:04:11;;;;;;;17.85;15.30;;;;;;;;;;5029733;28;20399;-93
2021/03/05 07:06:37;;;;;;;22.85;18.30;;;;;;;;;;5028300;28;20750;-86
2021/03/05 07:09:04;;;;;;;20.77;17.25;;;;;;;;;;5028915;28;20413;-87
2021/03/05 07:11:38;;;;;;;20.33;16.45;;;;;;;;;;5030130;28;20384;-87
2021/03/05 07:14:05;;;;;;;21.42;16.80;;;;;;;;;;5028369;28;20413;-85
2021/03/05 07:16:46;;;;;;;21.05;16.90;;;;;;;;;;5029067;28;20393;-85
2021/03/05 07:19:12;;;;;;;21.63;17.85;;;;;;;;;;5030082;28;20438;-87
2021/03/05 07:21:40;;;;;;;22.38;18.85;;;;;;;;;;5030015;28;20458;-87
2021/03/05 07:24:06;;;;;;;22.52;18.20;;;;;;;;;;5028513;28;20382;-87
2021/03/05 07:26:35;;;;;;;21.98;17.90;;;;;;;;;;5027579;28;20373;-87
2021/03/05 07:29:02;;;;;;;21.38;17.00;;;;;;;;;;5020428;28;20381;-86
2021/03/05 07:31:30;;;;;;;25.08;18.38;;;;;;;;;;5029738;28;20381;-87
2021/03/05 07:34:00;;;;;;;23.88;18.60;;;;;;;;;;5028124;28;20424;-86
2021/03/05 07:36:30;;;;;;;25.08;19.33;;;;;;;;;;5029953;28;20413;-88
2021/03/05 07:39:02;;;;;;;26.35;19.08;;;;;;;;;;5024404;28;20455;-87
2021/03/05 07:41:29;;;;;;;23.23;18.95;;;;;;;;;;5008858;28;20388;-86
2021/03/05 07:43:55;;;;;;;23.85;20.23;;;;;;;;;;5036129;28;20428;-87
2021/03/05 07:46:21;;;;;;;24.15;19.52;;;;;;;;;;5028257;28;20444;-86
2021/03/05 07:48:48;;;;;;;24.38;18.63;;;;;;;;;;5029648;28;20741;-87
2021/03/05 07:51:15;;;;;;;24.43;19.67;;;;;;;;;;5028783;28;20414;-86
2021/03/05 07:53:51;;;;;;;22.98;18.50;;;;;;;;;;5040789;28;20411;-86
2021/03/05 07:56:36;;;;;;;21.70;17.65;;;;;;;;;;5031415;28;20406;-86
2021/03/05 07:59:02;;;;;;;22.50;18.40;;;;;;;;;;5028050;28;20378;-87
2021/03/05 08:01:46;;;;;;;25.63;19.80;;;;;;;;;;5027839;28;20385;-86
2021/03/05 08:04:12;;;;;;;19.95;17.80;;;;;;;;;;5027712;28;20381;-87
2021/03/05 08:06:40;;;;;;;24.35;18.88;;;;;;;;;;5030929;28;20965;-86
2021/03/05 08:09:06;;;;;;;20.50;17.20;;;;;;;;;;5032781;28;20404;-87
2021/03/05 08:11:36;;;;;;;21.83;16.45;;;;;;;;;;5024949;28;20485;-87
2021/03/05 08:14:22;;;;;;;20.02;16.58;;;;;;;;;;5011607;28;20415;-91
2021/03/05 08:16:48;;;;;;;19.88;16.05;;;;;;;;;;5030441;28;20413;-90
2021/03/05 08:19:15;;;;;;;18.00;14.82;;;;;;;;;;5031402;28;20393;-89
2021/03/05 08:21:56;;;;;;;17.58;15.48;;;;;;;;;;5031987;28;20436;-92
2021/03/05 08:24:29;;;;;;;18.52;15.82;;;;;;;;;;5019905;28;20419;-88
2021/03/05 08:26:58;;;;;;;17.98;14.90;;;;;;;;;;5030825;28;20818;-90
2021/03/05 08:29:43;;;;;;;17.75;14.82;;;;;;;;;;5031625;28;20474;-88
2021/03/05 08:32:28;;;;;;;17.00;14.02;;;;;;;;;;5022794;28;20433;-90
2021/03/05 08:34:55;;;;;;;18.77;15.20;;;;;;;;;;5037370;28;20413;-85
2021/03/05 08:37:35;;;;;;;18.08;13.10;;;;;;;;;;5031097;28;20404;-87
2021/03/05 08:40:10;;;;;;;18.40;14.27;;;;;;;;;;5029573;28;20498;-87
2021/03/05 08:42:40;;;;;;;14.85;13.00;;;;;;;;;;5023203;28;20403;-87
2021/03/05 08:45:06;;;;;;;14.45;12.27;;;;;;;;;;5012511;28;20391;-85
2021/03/05 08:47:33;;;;;;;17.23;13.43;;;;;;;;;;5026148;28;20412;-86
2021/03/05 08:49:59;;;;;;;16.67;14.18;;;;;;;;;;5030727;28;20464;-86
2021/03/05 08:52:26;;;;;;;17.25;13.98;;;;;;;;;;5032301;28;20401;-89
2021/03/05 08:54:51;;;;;;;15.10;13.07;;;;;;;;;;5014393;28;20415;-86
2021/03/05 08:57:18;;;;;;;18.17;14.18;;;;;;;;;;5041678;28;20882;-88
2021/03/05 08:59:48;;;;;;;17.60;14.25;;;;;;;;;;5030977;28;20396;-86
2021/03/05 09:02:14;;;;;;;19.15;11.10;;;;;;;;;;5030066;28;20420;-88
2021/03/05 09:04:43;;;;;;;14.35;11.60;;;;;;;;;;5011840;28;20392;-89
2021/03/05 09:07:15;;;;;;;15.02;11.82;;;;;;;;;;5032318;28;20381;-85
2021/03/05 09:09:41;;;;;;;13.77;11.65;;;;;;;;;;5033513;28;20381;-87
2021/03/05 09:12:14;;;;;;;14.15;10.77;;;;;;;;;;5033891;28;20384;-85
2021/03/05 09:14:41;;;;;;;15.48;11.13;;;;;;;;;;5034012;28;20463;-87
2021/03/05 09:17:08;;;;;;;13.93;10.93;;;;;;;;;;5016371;28;20882;-90
2021/03/05 09:19:34;;;;;;;13.30;11.00;;;;;;;;;;5030854;28;20600;-87
2021/03/05 09:22:17;;;;;;;12.35;9.30;;;;;;;;;;5031537;28;20760;-87
2021/03/05 09:24:47;;;;;;;12.13;8.93;;;;;;;;;;5033679;28;20388;-86
2021/03/05 09:27:17;;;;;;;11.98;8.60;;;;;;;;;;5047590;28;20392;-88
2021/03/05 09:29:43;;;;;;;11.13;8.95;;;;;;;;;;5033198;28;20385;-87
2021/03/05 09:32:09;;;;;;;7.47;6.57;;;;;;;;;;5043882;28;20425;-86
2021/03/05 09:34:47;;;;;;;9.77;7.05;;;;;;;;;;5042338;28;20414;-84
2021/03/05 09:37:16;;;;;;;7.97;6.38;;;;;;;;;;5034494;28;20747;-85
2021/03/05 09:39:43;;;;;;;8.70;5.78;;;;;;;;;;5015922;28;20409;-86
2021/03/05 09:42:09;;;;;;;8.02;6.25;;;;;;;;;;5022711;28;20381;-86
2021/03/05 09:44:48;;;;;;;8.82;6.30;;;;;;;;;;5023031;28;20419;-86
2021/03/05 09:47:14;;;;;;;8.93;6.28;;;;;;;;;;5039428;28;20417;-87
2021/03/05 09:49:40;;;;;;;8.88;5.38;;;;;;;;;;5030306;28;20787;-89
2021/03/05 09:52:26;;;;;;;7.33;4.53;;;;;;;;;;5031002;28;20416;-87
2021/03/05 09:54:54;;;;;;;7.70;5.30;;;;;;;;;;5030297;28;20405;-88
2021/03/05 09:57:24;;;;;;;6.38;4.22;;;;;;;;;;5029852;28;20536;-87
2021/03/05 09:59:50;;;;;;;5.97;3.67;;;;;;;;;;5029250;28;20380;-88
2021/03/05 10:02:23;;;;;;;4.78;3.00;;;;;;;;;;5029182;28;20480;-87
2021/03/05 10:04:50;;;;;;;4.83;2.80;;;;;;;;;;5030332;28;20408;-88
2021/03/05 10:07:17;;;;;;;4.18;2.50;;;;;;;;;;5030973;28;20936;-89
2021/03/05 10:09:43;;;;;;;4.75;2.70;;;;;;;;;;5028351;28;20386;-87
2021/03/05 10:12:09;;;;;;;5.40;3.10;;;;;;;;;;5029219;28;20381;-90
2021/03/05 10:14:39;;;;;;;4.68;2.60;;;;;;;;;;5030770;28;20401;-88
2021/03/05 10:17:06;;;;;;;4.20;2.20;;;;;;;;;;5029286;28;20925;-86
2021/03/05 10:19:32;;;;;;;5.22;2.38;;;;;;;;;;5029384;28;20377;-86
2021/03/05 10:22:00;;;;;;;4.55;2.22;;;;;;;;;;5028839;28;20478;-88
2021/03/05 10:24:27;;;;;;;3.28;1.90;;;;;;;;;;5028451;28;20382;-91
2021/03/05 10:27:15;;;;;;;2.53;1.65;;;;;;;;;;5028658;28;20743;-88
2021/03/05 10:29:46;;;;;;;3.28;1.95;;;;;;;;;;5028376;28;20389;-87
2021/03/05 10:32:40;;;;;;;4.25;2.30;;;;;;;;;;5027835;28;21659;-86
2021/03/05 10:35:08;;;;;;;5.15;2.30;;;;;;;;;;5028386;28;20764;-85
2021/03/05 10:37:35;;;;;;;3.70;1.90;;;;;;;;;;5030806;28;20386;-89
2021/03/05 10:40:02;;;;;;;3.30;2.08;;;;;;;;;;5012489;28;20402;-87
2021/03/05 10:42:29;;;;;;;3.03;1.75;;;;;;;;;;5015884;28;20436;-88
2021/03/05 10:44:55;;;;;;;3.33;1.83;;;;;;;;;;5028957;28;20899;-88
2021/03/05 10:47:22;;;;;;;2.22;1.50;;;;;;;;;;5028322;28;20382;-89
2021/03/05 10:49:48;;;;;;;2.80;1.60;;;;;;;;;;5028517;28;20389;-89
2021/03/05 10:52:15;;;;;;;3.43;1.70;;;;;;;;;;5028679;28;20417;-87
2021/03/05 10:54:41;;;;;;;2.03;1.60;;;;;;;;;;5028913;28;20406;-90
2021/03/05 10:57:08;;;;;;;2.55;1.80;;;;;;;;;;5019279;28;20809;-89
2021/03/05 10:59:34;;;;;;;3.70;2.20;;;;;;;;;;5010663;28;21113;-89
2021/03/05 11:02:00;;;;;;;4.72;2.35;;;;;;;;;;5016020;28;20473;-89
2021/03/05 11:04:26;;;;;;;3.40;1.98;;;;;;;;;;5029852;28;20464;-90
2021/03/05 11:06:53;;;;;;;3.67;2.03;;;;;;;;;;5028564;28;20378;-87
2021/03/05 11:09:19;;;;;;;3.30;2.22;;;;;;;;;;5029685;28;20373;-87
2021/03/05 11:11:46;;;;;;;2.97;2.30;;;;;;;;;;5028675;28;20497;-87
2021/03/05 11:14:14;;;;;;;3.65;2.13;;;;;;;;;;5027256;28;20440;-88
2021/03/05 11:16:40;;;;;;;2.72;2.08;;;;;;;;;;5029121;28;20751;-88
2021/03/05 11:19:06;;;;;;;3.85;1.80;;;;;;;;;;5032174;28;20397;-93
2021/03/05 11:21:33;;;;;;;4.38;1.65;;;;;;;;;;5028876;28;20500;-88
2021/03/05 11:23:59;;;;;;;2.55;1.60;;;;;;;;;;5028762;28;20382;-86
2021/03/05 11:26:25;;;;;;;3.78;1.95;;;;;;;;;;5029080;28;20381;-92
2021/03/05 11:28:52;;;;;;;3.03;1.80;;;;;;;;;;5027018;28;20562;-85
2021/03/05 11:31:18;;;;;;;3.03;1.65;;;;;;;;;;5026686;28;20447;-86
2021/03/05 11:33:47;;;;;;;3.03;1.90;;;;;;;;;;5031585;28;20441;-88
2021/03/05 11:36:14;;;;;;;2.65;1.90;;;;;;;;;;5025566;28;20441;-86
2021/03/05 11:38:41;;;;;;;2.40;1.48;;;;;;;;;;5028076;28;20408;-86
2021/03/05 11:41:08;;;;;;;2.58;1.50;;;;;;;;;;5030674;28;20398;-88
2021/03/05 11:43:35;;;;;;;2.13;1.23;;;;;;;;;;5031981;28;20783;-87
2021/03/05 11:46:01;;;;;;;2.50;1.52;;;;;;;;;;5031716;28;20385;-88
2021/03/05 11:48:27;;;;;;;2.70;1.50;;;;;;;;;;5031705;28;20400;-84
2021/03/05 11:50:53;;;;;;;1.63;1.25;;;;;;;;;;5032149;28;20421;-86
2021/03/05 11:53:19;;;;;;;3.25;1.50;;;;;;;;;;5032418;28;20982;-85
2021/03/05 11:55:45;;;;;;;2.47;1.30;;;;;;;;;;5032076;28;20391;-84
2021/03/05 11:58:12;;;;;;;1.90;1.30;;;;;;;;;;5032120;28;20377;-84
2021/03/05 12:00:38;;;;;;;3.00;1.30;;;;;;;;;;5032417;28;20767;-85
2021/03/05 12:03:05;;;;;;;1.83;1.35;;;;;;;;;;5031439;28;20736;-87
2021/03/05 12:05:31;;;;;;;2.10;1.70;;;;;;;;;;5031510;28;20380;-86
2021/03/05 12:07:57;;;;;;;3.28;1.38;;;;;;;;;;5030569;28;20472;-85
2021/03/05 12:10:23;;;;;;;1.75;1.10;;;;;;;;;;5030533;28;20413;-85
2021/03/05 12:12:49;;;;;;;2.73;1.17;;;;;;;;;;5029972;28;20391;-87
2021/03/05 12:15:16;;;;;;;2.38;1.40;;;;;;;;;;5030727;28;20428;-86
2021/03/05 12:17:42;;;;;;;2.47;1.23;;;;;;;;;;5030845;28;20538;-86
2021/03/05 12:20:12;;;;;;;2.13;1.20;;;;;;;;;;5042845;28;20421;-87
2021/03/05 12:22:38;;;;;;;2.67;1.48;;;;;;;;;;5030939;28;20831;-88
2021/03/05 12:25:08;;;;;;;2.03;1.30;;;;;;;;;;5032251;28;20481;-88
2021/03/05 12:27:34;;;;;;;2.88;1.10;;;;;;;;;;5030782;28;20405;-87
2021/03/05 12:30:00;;;;;;;2.35;1.33;;;;;;;;;;5028843;28;20432;-87
2021/03/05 12:32:26;;;;;;;2.83;1.40;;;;;;;;;;5033832;28;20407;-85
2021/03/05 12:34:52;;;;;;;2.00;1.07;;;;;;;;;;5028213;28;20413;-86
2021/03/05 12:37:19;;;;;;;1.55;1.10;;;;;;;;;;5032160;28;20720;-86
2021/03/05 12:39:45;;;;;;;2.20;1.20;;;;;;;;;;5035757;28;20370;-87
2021/03/05 12:42:11;;;;;;;3.63;1.20;;;;;;;;;;5033362;28;20392;-86
2021/03/05 12:44:37;;;;;;;3.90;1.23;;;;;;;;;;5032376;28;20385;-87
2021/03/05 12:47:03;;;;;;;2.00;1.17;;;;;;;;;;5033540;28;20802;-87
2021/03/05 12:49:32;;;;;;;2.33;1.20;;;;;;;;;;5032874;28;20385;-86
2021/03/05 12:51:58;;;;;;;1.85;1.30;;;;;;;;;;5030556;28;20386;-87
2021/03/05 12:54:24;;;;;;;2.72;1.30;;;;;;;;;;5032274;28;20450;-87
2021/03/05 12:56:53;;;;;;;2.65;1.10;;;;;;;;;;5031512;28;20373;-87
2021/03/05 12:59:20;;;;;;;2.57;1.07;;;;;;;;;;5031282;28;20382;-87
2021/03/05 13:01:55;;;;;;;2.45;1.30;;;;;;;;;;5026926;28;20460;-87
2021/03/05 13:04:21;;;;;;;2.00;1.10;;;;;;;;;;5034113;28;20389;-88
2021/03/05 13:06:47;;;;;;;2.38;1.13;;;;;;;;;;5031852;28;20377;-84
2021/03/05 13:09:12;;;;;;;2.60;1.30;;;;;;;;;;5029961;28;20455;-86
2021/03/05 13:11:38;;;;;;;2.25;1.23;;;;;;;;;;5031937;28;20370;-85
2021/03/05 13:14:05;;;;;;;3.03;1.13;;;;;;;;;;5030064;28;20899;-84
2021/03/05 13:16:31;;;;;;;2.67;1.33;;;;;;;;;;5030733;28;20496;-89
2021/03/05 13:18:57;;;;;;;2.70;1.30;;;;;;;;;;5029603;28;20377;-88
2021/03/05 13:21:23;;;;;;;3.33;1.10;;;;;;;;;;5029750;28;20435;-84
2021/03/05 13:23:48;;;;;;;1.58;1.08;;;;;;;;;;5029176;28;20370;-86
2021/03/05 13:26:15;;;;;;;2.13;1.10;;;;;;;;;;5030013;28;20373;-85
2021/03/05 13:28:42;;;;;;;2.63;1.10;;;;;;;;;;5030099;28;20378;-84
2021/03/05 13:31:09;;;;;;;1.40;0.90;;;;;;;;;;5030201;28;20392;-87
2021/03/05 13:33:35;;;;;;;2.03;1.20;;;;;;;;;;5030767;28;20455;-85
2021/03/05 13:36:01;;;;;;;2.60;1.30;;;;;;;;;;5031008;28;21151;-86
2021/03/05 13:38:28;;;;;;;2.95;1.42;;;;;;;;;;5029406;28;20378;-84
2021/03/05 13:40:54;;;;;;;3.67;1.13;;;;;;;;;;5028914;28;20389;-84
2021/03/05 13:43:20;;;;;;;3.03;1.17;;;;;;;;;;5032124;28;20752;-82
2021/03/05 13:45:46;;;;;;;1.52;1.20;;;;;;;;;;5032799;28;20381;-86
2021/03/05 13:48:12;;;;;;;2.75;1.17;;;;;;;;;;5030443;28;20384;-83
2021/03/05 13:50:39;;;;;;;3.17;1.20;;;;;;;;;;5032563;28;20373;-85
2021/03/05 13:53:05;;;;;;;2.50;0.98;;;;;;;;;;5036854;28;20385;-85
2021/03/05 13:55:30;;;;;;;2.13;1.17;;;;;;;;;;5030315;28;20417;-85
2021/03/05 13:57:56;;;;;;;2.58;1.10;;;;;;;;;;5032549;28;20382;-86
2021/03/05 14:00:23;;;;;;;1.87;1.03;;;;;;;;;;5031311;28;20910;-84
2021/03/05 14:02:49;;;;;;;1.80;1.00;;;;;;;;;;5029555;28;20378;-84
2021/03/05 14:05:15;;;;;;;1.70;1.17;;;;;;;;;;5029861;28;20493;-85
2021/03/05 14:07:41;;;;;;;3.00;1.08;;;;;;;;;;5031818;28;21253;-87
2021/03/05 14:10:07;;;;;;;2.85;1.08;;;;;;;;;;5031180;28;20399;-86
2021/03/05 14:12:33;;;;;;;2.15;0.98;;;;;;;;;;5031462;28;20377;-87
2021/03/05 14:14:59;;;;;;;1.83;1.13;;;;;;;;;;5031072;28;20449;-84
2021/03/05 14:17:25;;;;;;;1.67;1.10;;;;;;;;;;5031088;28;20374;-85
2021/03/05 14:19:51;;;;;;;2.13;0.97;;;;;;;;;;5029373;28;20464;-84
2021/03/05 14:22:17;;;;;;;1.60;1.05;;;;;;;;;;5031629;28;20381;-84
2021/03/05 14:24:43;;;;;;;1.88;1.08;;;;;;;;;;5030904;28;20811;-85
2021/03/05 14:27:09;;;;;;;3.60;1.40;;;;;;;;;;5030094;28;20378;-83
2021/03/05 14:29:35;;;;;;;2.10;1.05;;;;;;;;;;5029258;28;20438;-84
2021/03/05 14:32:01;;;;;;;2.58;1.13;;;;;;;;;;5028474;28;20378;-86